createdAt,value
2022-10-11T00:04:50.670Z,9.23
2022-10-11T00:15:19.232Z,9.00
2022-10-11T00:25:40.869Z,9.05
2022-10-11T00:36:03.429Z,8.98
2022-10-11T00:46:28.575Z,8.97
2022-10-11T00:56:54.271Z,9.07
2022-10-11T01:07:18.733Z,8.95
2022-10-11T01:17:59.222Z,8.89
2022-10-11T01:28:56.722Z,8.74
2022-10-11T01:39:30.104Z,8.69
2022-10-11T01:50:00.447Z,8.49
2022-10-11T02:00:39.355Z,8.56
2022-10-11T02:11:06.206Z,8.46
2022-10-11T02:21:29.711Z,8.46
2022-10-11T02:31:52.486Z,8.26
2022-10-11T02:42:19.145Z,8.44
2022-10-11T02:52:40.632Z,8.27
2022-10-11T03:03:02.082Z,8.33
2022-10-11T03:13:23.875Z,8.24
2022-10-11T03:23:45.383Z,8.23
2022-10-11T03:34:06.862Z,8.14
2022-10-11T03:44:28.344Z,8.19
2022-10-11T03:54:49.818Z,8.07
2022-10-11T04:05:12.659Z,8.01
2022-10-11T04:15:34.230Z,7.92
2022-10-11T04:25:55.672Z,7.78
2022-10-11T04:36:17.323Z,7.84
2022-10-11T04:46:38.821Z,7.85
2022-10-11T04:57:00.323Z,7.77
2022-10-11T05:07:21.905Z,7.78
2022-10-11T05:17:43.374Z,7.68
2022-10-11T05:28:04.986Z,7.68
2022-10-11T05:38:26.991Z,7.52
2022-10-11T05:48:48.372Z,7.68
2022-10-11T05:59:09.845Z,7.59
2022-10-11T06:09:31.489Z,7.34
2022-10-11T06:19:52.963Z,7.45
2022-10-11T06:30:14.738Z,7.46
2022-10-11T06:40:36.582Z,7.51
2022-10-11T06:51:00.515Z,7.74
2022-10-11T07:01:23.844Z,7.75
2022-10-11T07:11:47.173Z,8.02
2022-10-11T07:22:08.712Z,8.16
2022-10-11T07:32:30.809Z,8.30
2022-10-11T07:42:52.230Z,8.46
2022-10-11T07:53:13.809Z,8.84
2022-10-11T08:03:35.394Z,9.14
2022-10-11T08:13:57.700Z,9.42
2022-10-11T08:24:20.985Z,9.77
2022-10-11T08:34:42.525Z,10.09
2022-10-11T08:45:11.568Z,10.37
2022-10-11T08:55:44.083Z,10.69
2022-10-11T09:06:20.078Z,11.05
2022-10-11T09:17:10.922Z,11.43
2022-10-11T09:28:01.310Z,11.77
2022-10-11T09:38:40.464Z,12.12
2022-10-11T09:49:07.817Z,12.33
2022-10-11T09:59:35.854Z,12.78
2022-10-11T10:09:57.748Z,13.14
2022-10-11T10:20:22.927Z,13.32
2022-10-11T10:30:56.745Z,13.63
2022-10-11T10:41:19.021Z,13.80
2022-10-11T10:51:52.955Z,13.74
2022-10-11T11:02:39.596Z,14.27
2022-10-11T11:13:19.053Z,14.47
2022-10-11T11:23:56.766Z,14.39
2022-10-11T11:34:24.064Z,14.62
2022-10-11T11:44:50.639Z,14.78
2022-10-11T11:55:44.911Z,14.68
2022-10-11T12:06:12.640Z,14.78
2022-10-11T12:16:34.172Z,14.81
2022-10-11T12:26:57.969Z,15.17
2022-10-11T12:37:19.656Z,15.31
2022-10-11T12:47:56.473Z,15.01
2022-10-11T12:58:24.261Z,15.33
2022-10-11T13:08:52.545Z,15.40
2022-10-11T13:19:15.607Z,15.66
2022-10-11T13:29:41.490Z,15.44
2022-10-11T13:40:03.289Z,15.37
2022-10-11T13:50:32.082Z,15.17
2022-10-11T14:01:00.648Z,15.03
2022-10-11T14:11:37.724Z,15.01
2022-10-11T14:21:59.198Z,14.91
2022-10-11T14:32:29.705Z,14.95
2022-10-11T14:42:51.753Z,14.69
2022-10-11T14:53:14.092Z,14.64
2022-10-11T15:03:35.611Z,14.49
2022-10-11T15:13:57.122Z,14.30
2022-10-11T15:24:22.189Z,14.36
2022-10-11T15:34:44.192Z,14.34
2022-10-11T15:45:05.889Z,14.25
2022-10-11T15:55:27.368Z,14.25
2022-10-11T16:05:49.077Z,14.11
2022-10-11T16:16:11.503Z,14.21
2022-10-11T16:26:33.066Z,14.13
2022-10-11T16:36:54.421Z,13.98
2022-10-11T16:47:16.692Z,13.61
2022-10-11T16:57:38.638Z,13.24
2022-10-11T17:08:00.162Z,13.17
2022-10-11T17:18:21.621Z,12.97
2022-10-11T17:28:43.313Z,12.83
2022-10-11T17:39:08.042Z,12.77
2022-10-11T17:49:30.002Z,12.56
2022-10-11T17:59:52.588Z,12.43
2022-10-11T18:10:14.042Z,12.35
2022-10-11T18:20:35.467Z,12.32
2022-10-11T18:30:57.813Z,12.34
2022-10-11T18:41:22.132Z,12.49
2022-10-11T18:51:45.742Z,12.60
2022-10-11T19:02:07.179Z,12.64
2022-10-11T19:12:28.659Z,12.66
2022-10-11T19:22:50.111Z,12.81
2022-10-11T19:33:11.580Z,12.78
2022-10-11T19:43:33.308Z,12.69
2022-10-11T19:54:05.441Z,12.68
2022-10-11T20:04:51.115Z,12.65
2022-10-11T20:15:08.451Z,12.39
2022-10-11T20:25:29.899Z,12.16
2022-10-11T20:36:11.140Z,11.93
2022-10-11T20:46:35.179Z,11.81
2022-10-11T20:56:57.612Z,11.66
2022-10-11T21:07:19.121Z,11.39
2022-10-11T21:17:40.616Z,11.34
2022-10-11T21:28:02.543Z,11.21
2022-10-11T21:38:24.291Z,11.09
2022-10-11T21:48:46.329Z,10.82
2022-10-11T21:59:11.153Z,10.81
2022-10-11T22:09:35.055Z,10.64
2022-10-11T22:19:56.510Z,10.63
2022-10-11T22:30:18.074Z,10.49
2022-10-11T22:40:39.911Z,10.39
2022-10-11T22:51:01.344Z,10.36
2022-10-11T23:01:22.813Z,10.28
2022-10-11T23:11:44.281Z,10.15
2022-10-11T23:22:05.771Z,9.99
2022-10-11T23:32:27.280Z,9.98
2022-10-11T23:42:48.724Z,9.87
2022-10-11T23:53:10.717Z,9.73
